createdAt,value
2023-10-12T00:00:28.289Z,100.00
2023-10-12T00:03:18.218Z,100.00
2023-10-12T00:05:48.254Z,100.00
2023-10-12T00:08:31.312Z,100.00
2023-10-12T00:10:59.539Z,100.00
2023-10-12T00:13:30.318Z,100.00
2023-10-12T00:16:01.272Z,100.00
2023-10-12T00:18:29.879Z,100.00
2023-10-12T00:21:06.261Z,100.00
2023-10-12T00:23:37.009Z,100.00
2023-10-12T00:26:08.004Z,100.00
2023-10-12T00:28:40.177Z,100.00
2023-10-12T00:31:13.556Z,100.00
2023-10-12T00:33:42.222Z,100.00
2023-10-12T00:36:21.503Z,100.00
2023-10-12T00:38:53.236Z,100.00
2023-10-12T00:41:25.996Z,100.00
2023-10-12T00:44:09.740Z,100.00
2023-10-12T00:47:01.880Z,100.00
2023-10-12T00:49:31.619Z,100.00
2023-10-12T00:52:10.279Z,100.00
2023-10-12T00:54:57.304Z,100.00
2023-10-12T00:57:26.334Z,100.00
2023-10-12T00:59:55.054Z,100.00
2023-10-12T01:02:25.617Z,100.00
2023-10-12T01:04:55.584Z,100.00
2023-10-12T01:07:27.663Z,100.00
2023-10-12T01:10:05.015Z,100.00
2023-10-12T01:12:35.089Z,100.00
2023-10-12T01:15:09.578Z,100.00
2023-10-12T01:17:37.770Z,100.00
2023-10-12T01:20:18.249Z,100.00
2023-10-12T01:22:49.625Z,100.00
2023-10-12T01:25:22.948Z,100.00
2023-10-12T01:27:54.363Z,100.00
2023-10-12T01:30:24.307Z,100.00
2023-10-12T01:32:55.634Z,100.00
2023-10-12T01:35:28.370Z,100.00
2023-10-12T01:38:01.971Z,100.00
2023-10-12T01:40:45.665Z,100.00
2023-10-12T01:43:16.117Z,100.00
2023-10-12T01:45:45.137Z,100.00
2023-10-12T01:48:17.910Z,100.00
2023-10-12T01:50:48.464Z,100.00
2023-10-12T01:53:30.858Z,100.00
2023-10-12T01:56:01.488Z,100.00
2023-10-12T01:58:30.163Z,100.00
2023-10-12T02:01:06.831Z,100.00
2023-10-12T02:03:44.347Z,100.00
2023-10-12T02:06:17.712Z,100.00
2023-10-12T02:08:53.873Z,100.00
2023-10-12T02:11:37.742Z,100.00
2023-10-12T02:14:06.457Z,100.00
2023-10-12T02:16:39.336Z,100.00
2023-10-12T02:19:09.612Z,100.00
2023-10-12T02:21:42.268Z,100.00
2023-10-12T02:24:16.022Z,100.00
2023-10-12T02:26:54.080Z,100.00
2023-10-12T02:29:22.422Z,100.00
2023-10-12T02:32:24.322Z,100.00
2023-10-12T02:34:57.424Z,100.00
2023-10-12T02:37:28.821Z,100.00
2023-10-12T02:39:58.870Z,100.00
2023-10-12T02:42:41.934Z,100.00
2023-10-12T02:45:19.412Z,100.00
2023-10-12T02:47:50.643Z,100.00
2023-10-12T02:50:30.750Z,100.00
2023-10-12T02:53:10.133Z,100.00
2023-10-12T02:55:43.067Z,100.00
2023-10-12T02:58:20.816Z,100.00
2023-10-12T03:00:57.175Z,100.00
2023-10-12T03:03:38.373Z,100.00
2023-10-12T03:06:09.763Z,100.00
2023-10-12T03:09:05.016Z,100.00
2023-10-12T03:11:34.728Z,100.00
2023-10-12T03:14:14.621Z,100.00
2023-10-12T03:16:44.564Z,100.00
2023-10-12T03:19:25.848Z,100.00
2023-10-12T03:22:04.692Z,100.00
2023-10-12T03:24:45.482Z,100.00
2023-10-12T03:27:18.039Z,100.00
2023-10-12T03:29:52.448Z,100.00
2023-10-12T03:32:24.812Z,100.00
2023-10-12T03:34:57.889Z,100.00
2023-10-12T03:37:52.226Z,100.00
2023-10-12T03:40:38.387Z,100.00
2023-10-12T03:43:14.299Z,100.00
2023-10-12T03:46:02.110Z,100.00
2023-10-12T03:48:50.112Z,100.00
2023-10-12T03:51:29.842Z,100.00
2023-10-12T03:54:12.574Z,100.00
2023-10-12T03:56:41.783Z,100.00
2023-10-12T03:59:13.682Z,100.00
2023-10-12T04:01:43.347Z,100.00
2023-10-12T04:04:18.332Z,100.00
2023-10-12T04:07:06.583Z,100.00
2023-10-12T04:09:43.960Z,100.00
2023-10-12T04:12:20.810Z,100.00
2023-10-12T04:14:53.898Z,100.00
2023-10-12T04:17:42.288Z,100.00
2023-10-12T04:20:23.256Z,100.00
2023-10-12T04:23:35.271Z,100.00
2023-10-12T04:26:28.411Z,100.00
2023-10-12T04:28:58.457Z,100.00
2023-10-12T04:31:35.574Z,100.00
2023-10-12T04:34:08.875Z,100.00
2023-10-12T04:36:46.155Z,100.00
2023-10-12T04:39:26.421Z,100.00
2023-10-12T04:42:06.213Z,100.00
2023-10-12T04:44:37.425Z,100.00
2023-10-12T04:47:08.210Z,100.00
2023-10-12T04:49:54.856Z,100.00
2023-10-12T04:52:37.852Z,100.00
2023-10-12T04:55:22.370Z,100.00
2023-10-12T04:58:07.761Z,100.00
2023-10-12T05:00:50.372Z,100.00
2023-10-12T05:03:34.820Z,99.62
2023-10-12T05:06:06.399Z,98.44
2023-10-12T05:08:36.489Z,96.98
2023-10-12T05:11:10.012Z,97.11
2023-10-12T05:13:44.842Z,97.29
2023-10-12T05:16:16.427Z,98.02
2023-10-12T05:18:49.408Z,98.35
2023-10-12T05:21:18.433Z,98.34
2023-10-12T05:23:46.665Z,98.05
2023-10-12T05:26:16.110Z,97.51
2023-10-12T05:28:59.906Z,97.21
2023-10-12T05:31:30.865Z,97.56
2023-10-12T05:34:20.110Z,97.46
2023-10-12T05:36:49.845Z,97.04
2023-10-12T05:39:18.744Z,96.35
2023-10-12T05:41:49.201Z,95.41
2023-10-12T05:44:27.644Z,94.57
2023-10-12T05:47:00.885Z,93.96
2023-10-12T05:49:34.749Z,93.23
2023-10-12T05:52:07.859Z,93.27
2023-10-12T05:54:40.114Z,93.05
2023-10-12T05:57:20.842Z,92.32
2023-10-12T05:59:49.629Z,91.89
2023-10-12T06:02:22.159Z,90.18
2023-10-12T06:04:52.041Z,89.88
2023-10-12T06:07:21.424Z,89.95
2023-10-12T06:09:54.598Z,89.73
2023-10-12T06:12:26.304Z,89.42
2023-10-12T06:14:57.585Z,88.91
2023-10-12T06:17:41.179Z,88.92
2023-10-12T06:20:15.967Z,88.53
2023-10-12T06:22:44.459Z,87.86
2023-10-12T06:25:19.443Z,87.44
2023-10-12T06:27:50.295Z,87.81
2023-10-12T06:30:19.851Z,86.74
2023-10-12T06:32:50.090Z,87.45
2023-10-12T06:35:27.163Z,86.19
2023-10-12T06:38:13.196Z,86.14
2023-10-12T06:40:49.176Z,86.00
2023-10-12T06:43:52.151Z,86.02
2023-10-12T06:46:21.674Z,86.01
2023-10-12T06:48:59.910Z,84.76
2023-10-12T06:51:30.156Z,84.60
2023-10-12T06:54:19.195Z,83.88
2023-10-12T06:56:52.115Z,84.85
2023-10-12T06:59:36.407Z,83.95
2023-10-12T07:02:12.239Z,83.93
2023-10-12T07:04:43.633Z,83.08
2023-10-12T07:07:16.641Z,82.50
2023-10-12T07:09:46.014Z,81.95
2023-10-12T07:12:15.197Z,82.03
2023-10-12T07:14:48.312Z,81.05
2023-10-12T07:17:17.120Z,81.02
2023-10-12T07:19:51.955Z,81.21
2023-10-12T07:22:21.648Z,81.13
2023-10-12T07:24:54.820Z,80.53
2023-10-12T07:27:24.465Z,81.23
2023-10-12T07:30:13.199Z,80.74
2023-10-12T07:32:46.178Z,80.49
2023-10-12T07:35:19.636Z,80.56
2023-10-12T07:37:49.781Z,80.41
2023-10-12T07:40:21.098Z,79.98
2023-10-12T07:42:53.067Z,79.79
2023-10-12T07:45:30.476Z,79.20
2023-10-12T07:48:02.882Z,79.10
2023-10-12T07:50:39.251Z,78.16
2023-10-12T07:53:23.066Z,77.88
2023-10-12T07:55:57.576Z,76.66
2023-10-12T07:58:26.086Z,74.61
2023-10-12T08:01:14.771Z,73.91
2023-10-12T08:03:51.500Z,72.16
2023-10-12T08:06:26.398Z,71.17
2023-10-12T08:09:03.780Z,69.91
2023-10-12T08:11:33.223Z,69.27
2023-10-12T08:14:20.412Z,69.00
2023-10-12T08:17:09.168Z,68.71
2023-10-12T08:19:43.866Z,68.51
2023-10-12T08:22:19.040Z,67.45
2023-10-12T08:24:50.955Z,67.13
2023-10-12T08:27:20.419Z,67.62
2023-10-12T08:30:14.047Z,68.33
2023-10-12T08:32:57.411Z,68.32
2023-10-12T08:35:41.004Z,68.34
2023-10-12T08:38:13.376Z,67.64
2023-10-12T08:41:22.147Z,67.31
2023-10-12T08:43:53.889Z,67.00
2023-10-12T08:46:36.324Z,67.14
2023-10-12T08:49:29.204Z,66.76
2023-10-12T08:52:05.951Z,66.81
2023-10-12T08:54:38.564Z,66.24
2023-10-12T08:57:19.519Z,65.95
2023-10-12T09:00:09.858Z,65.00
2023-10-12T09:02:40.541Z,64.15
2023-10-12T09:05:14.059Z,64.31
2023-10-12T09:07:47.176Z,64.56
2023-10-12T09:10:29.794Z,64.82
2023-10-12T09:13:02.873Z,62.72
2023-10-12T09:15:39.825Z,62.82
2023-10-12T09:18:11.120Z,64.20
2023-10-12T09:20:42.267Z,62.58
2023-10-12T09:23:16.602Z,62.48
2023-10-12T09:26:16.079Z,62.30
2023-10-12T09:29:05.140Z,60.99
2023-10-12T09:31:58.300Z,59.92
2023-10-12T09:34:43.993Z,59.11
2023-10-12T09:37:21.454Z,59.49
2023-10-12T09:39:50.159Z,58.74
2023-10-12T09:42:31.523Z,58.28
2023-10-12T09:45:11.069Z,58.73
2023-10-12T09:47:52.057Z,57.84
2023-10-12T09:50:28.645Z,58.04
2023-10-12T09:53:13.482Z,57.60
2023-10-12T09:56:05.721Z,57.52
2023-10-12T09:58:35.434Z,57.40
2023-10-12T10:01:11.644Z,57.34
2023-10-12T10:03:49.340Z,58.21
2023-10-12T10:06:30.059Z,59.07
2023-10-12T10:09:20.484Z,58.90
2023-10-12T10:11:59.444Z,59.33
2023-10-12T10:14:35.544Z,58.62
2023-10-12T10:17:16.870Z,59.32
2023-10-12T10:19:53.215Z,59.01
2023-10-12T10:22:23.617Z,58.78
2023-10-12T10:24:57.013Z,58.36
2023-10-12T10:27:35.618Z,57.53
2023-10-12T10:30:27.238Z,57.09
2023-10-12T10:33:14.087Z,56.13
2023-10-12T10:36:00.020Z,57.53
2023-10-12T10:38:34.029Z,57.42
2023-10-12T10:41:08.990Z,57.76
2023-10-12T10:43:39.744Z,58.01
2023-10-12T10:46:13.922Z,57.57
2023-10-12T10:51:20.136Z,57.77
2023-10-12T10:53:56.098Z,57.10
2023-10-12T10:56:35.636Z,57.21
2023-10-12T10:59:09.016Z,56.54
2023-10-12T11:01:41.976Z,55.49
2023-10-12T11:04:19.829Z,55.32
2023-10-12T11:06:51.195Z,55.26
2023-10-12T11:09:19.935Z,54.94
2023-10-12T11:12:00.558Z,55.49
2023-10-12T11:14:32.922Z,55.79
2023-10-12T11:17:06.332Z,55.71
2023-10-12T11:19:39.544Z,55.02
2023-10-12T11:22:15.115Z,54.58
2023-10-12T11:24:47.658Z,54.97
2023-10-12T11:27:31.335Z,55.18
2023-10-12T11:30:01.918Z,55.08
2023-10-12T11:32:34.442Z,55.84
2023-10-12T11:35:07.980Z,56.15
2023-10-12T11:37:40.291Z,56.52
2023-10-12T11:40:11.097Z,55.88
2023-10-12T11:42:54.419Z,56.24
2023-10-12T11:45:22.808Z,55.42
2023-10-12T11:47:51.627Z,54.91
2023-10-12T11:50:33.322Z,55.67
2023-10-12T11:53:04.909Z,54.31
2023-10-12T11:55:33.186Z,53.88
2023-10-12T11:58:08.314Z,53.71
2023-10-12T12:00:39.145Z,53.87
2023-10-12T12:03:10.210Z,53.72
2023-10-12T12:05:41.323Z,54.21
2023-10-12T12:08:15.252Z,54.59
2023-10-12T12:10:47.423Z,55.21
2023-10-12T12:13:17.176Z,55.62
2023-10-12T12:15:46.017Z,55.04
2023-10-12T12:18:20.243Z,55.46
2023-10-12T12:20:52.229Z,56.74
2023-10-12T12:23:21.444Z,56.65
2023-10-12T12:25:52.743Z,57.46
2023-10-12T12:28:22.994Z,57.85
2023-10-12T12:30:59.936Z,57.44
2023-10-12T12:33:29.245Z,57.72
2023-10-12T12:36:02.405Z,57.95
2023-10-12T12:38:45.429Z,58.49
2023-10-12T12:41:20.979Z,58.25
2023-10-12T12:43:50.312Z,57.77
2023-10-12T12:46:19.769Z,57.93
2023-10-12T12:48:52.399Z,57.42
2023-10-12T12:51:23.452Z,57.35
2023-10-12T12:53:54.503Z,58.35
2023-10-12T12:56:24.274Z,58.77
2023-10-12T12:58:54.527Z,59.53
2023-10-12T13:01:25.680Z,59.08
2023-10-12T13:03:56.748Z,58.73
2023-10-12T13:06:27.086Z,57.10
2023-10-12T13:08:55.711Z,55.94
2023-10-12T13:11:24.293Z,55.83
2023-10-12T13:13:52.997Z,54.94
2023-10-12T13:16:21.380Z,54.85
2023-10-12T13:18:50.547Z,54.38
2023-10-12T13:21:23.677Z,53.81
2023-10-12T13:23:54.380Z,52.16
2023-10-12T13:26:24.637Z,51.48
2023-10-12T13:28:53.658Z,52.99
2023-10-12T13:31:24.570Z,52.81
2023-10-12T13:33:53.437Z,52.73
2023-10-12T13:36:22.243Z,52.61
2023-10-12T13:38:50.734Z,52.42
2023-10-12T13:41:22.253Z,51.74
2023-10-12T13:43:50.850Z,51.84
2023-10-12T13:46:19.503Z,52.46
2023-10-12T13:48:50.541Z,53.13
2023-10-12T13:51:22.012Z,53.67
2023-10-12T13:53:53.582Z,53.74
2023-10-12T13:56:25.828Z,53.95
2023-10-12T13:58:59.674Z,54.24
2023-10-12T14:01:35.175Z,54.90
2023-10-12T14:04:24.037Z,55.30
2023-10-12T14:06:54.481Z,54.60
2023-10-12T14:09:29.117Z,54.46
2023-10-12T14:12:00.525Z,54.94
2023-10-12T14:14:30.290Z,54.95
2023-10-12T14:16:59.009Z,54.88
2023-10-12T14:19:29.142Z,55.04
2023-10-12T14:22:00.262Z,55.87
2023-10-12T14:24:35.360Z,56.57
2023-10-12T14:27:07.912Z,56.57
2023-10-12T14:29:38.093Z,56.29
2023-10-12T14:32:06.544Z,56.29
2023-10-12T14:34:35.423Z,56.59
2023-10-12T14:37:04.531Z,55.92
2023-10-12T14:39:33.127Z,56.02
2023-10-12T14:42:01.615Z,56.11
2023-10-12T14:44:31.899Z,56.53
2023-10-12T14:47:00.771Z,56.32
2023-10-12T14:49:32.049Z,56.36
2023-10-12T14:52:01.043Z,56.88
2023-10-12T14:54:29.804Z,56.74
2023-10-12T14:56:57.989Z,57.18
2023-10-12T14:59:26.541Z,57.03
2023-10-12T15:01:57.038Z,56.70
2023-10-12T15:04:29.138Z,56.82
2023-10-12T15:06:57.637Z,57.47
2023-10-12T15:09:28.755Z,57.92
2023-10-12T15:11:57.794Z,58.69
2023-10-12T15:14:26.110Z,58.79
2023-10-12T15:16:55.845Z,58.94
2023-10-12T15:19:24.693Z,59.06
2023-10-12T15:21:55.339Z,59.32
2023-10-12T15:24:24.240Z,60.25
2023-10-12T15:26:52.508Z,59.92
2023-10-12T15:29:21.252Z,60.76
2023-10-12T15:31:49.770Z,60.24
2023-10-12T15:34:19.940Z,60.12
2023-10-12T15:36:48.233Z,59.88
2023-10-12T15:39:19.802Z,59.70
2023-10-12T15:41:49.597Z,59.34
2023-10-12T15:44:18.138Z,58.88
2023-10-12T15:46:47.231Z,58.80
2023-10-12T15:49:15.551Z,58.92
2023-10-12T15:51:45.656Z,59.08
2023-10-12T15:54:15.722Z,59.31
2023-10-12T15:56:45.169Z,59.28
2023-10-12T15:59:14.044Z,59.58
2023-10-12T16:01:42.791Z,60.11
2023-10-12T16:04:11.947Z,60.18
2023-10-12T16:06:40.252Z,61.27
2023-10-12T16:09:14.095Z,61.68
2023-10-12T16:11:42.530Z,61.80
2023-10-12T16:14:11.257Z,61.56
2023-10-12T16:16:39.845Z,62.48
2023-10-12T16:19:08.489Z,62.98
2023-10-12T16:21:37.520Z,62.56
2023-10-12T16:24:07.836Z,63.18
2023-10-12T16:26:38.492Z,63.44
2023-10-12T16:29:08.708Z,64.63
2023-10-12T16:31:37.289Z,65.29
2023-10-12T16:34:08.156Z,65.33
2023-10-12T16:36:37.213Z,65.76
2023-10-12T16:39:07.985Z,65.57
2023-10-12T16:41:38.822Z,66.21
2023-10-12T16:44:07.588Z,66.28
2023-10-12T16:46:35.837Z,65.91
2023-10-12T16:49:08.195Z,65.75
2023-10-12T16:51:36.678Z,66.05
2023-10-12T16:54:11.743Z,65.71
2023-10-12T16:56:44.870Z,66.50
2023-10-12T16:59:14.247Z,67.05
2023-10-12T17:01:42.553Z,67.59
2023-10-12T17:04:20.367Z,68.20
2023-10-12T17:06:50.378Z,68.24
2023-10-12T17:09:19.739Z,68.94
2023-10-12T17:11:51.426Z,69.35
2023-10-12T17:14:20.837Z,69.67
2023-10-12T17:16:51.966Z,70.70
2023-10-12T17:19:21.360Z,70.78
2023-10-12T17:21:50.091Z,71.22
2023-10-12T17:24:19.698Z,70.80
2023-10-12T17:26:52.259Z,70.43
2023-10-12T17:29:21.364Z,69.71
2023-10-12T17:31:49.814Z,69.73
2023-10-12T17:34:20.288Z,69.95
2023-10-12T17:36:48.889Z,70.05
2023-10-12T17:39:21.836Z,69.57
2023-10-12T17:41:52.478Z,69.63
2023-10-12T17:44:21.238Z,69.97
2023-10-12T17:46:50.124Z,69.95
2023-10-12T17:49:20.041Z,70.13
2023-10-12T17:51:50.360Z,70.58
2023-10-12T17:54:20.364Z,70.49
2023-10-12T17:56:50.446Z,70.77
2023-10-12T17:59:20.702Z,70.88
2023-10-12T18:01:49.640Z,70.98
2023-10-12T18:04:19.652Z,71.15
2023-10-12T18:06:48.264Z,71.44
2023-10-12T18:09:18.763Z,71.36
2023-10-12T18:11:48.273Z,71.52
2023-10-12T18:14:19.177Z,71.94
2023-10-12T18:16:50.451Z,72.04
2023-10-12T18:19:19.523Z,72.50
2023-10-12T18:21:48.730Z,72.66
2023-10-12T18:24:20.482Z,72.86
2023-10-12T18:26:48.992Z,73.19
2023-10-12T18:29:18.025Z,73.73
2023-10-12T18:31:50.750Z,73.55
2023-10-12T18:34:25.374Z,74.07
2023-10-12T18:37:05.853Z,74.65
2023-10-12T18:39:39.547Z,74.76
2023-10-12T18:42:07.810Z,75.13
2023-10-12T18:44:37.700Z,75.50
2023-10-12T18:47:06.158Z,76.42
2023-10-12T18:49:38.629Z,76.53
2023-10-12T18:52:07.422Z,77.11
2023-10-12T18:54:36.059Z,77.63
2023-10-12T18:57:06.906Z,77.61
2023-10-12T18:59:36.776Z,77.78
2023-10-12T19:02:06.547Z,77.69
2023-10-12T19:04:36.548Z,77.95
2023-10-12T19:07:05.217Z,78.22
2023-10-12T19:09:33.851Z,78.68
2023-10-12T19:12:02.108Z,79.13
2023-10-12T19:14:34.275Z,78.61
2023-10-12T19:17:06.246Z,78.76
2023-10-12T19:19:36.410Z,79.40
2023-10-12T19:22:05.008Z,79.71
2023-10-12T19:24:34.857Z,80.32
2023-10-12T19:27:04.318Z,80.44
2023-10-12T19:29:34.907Z,80.83
2023-10-12T19:32:04.272Z,80.98
2023-10-12T19:34:34.607Z,81.63
2023-10-12T19:37:05.054Z,81.27
2023-10-12T19:39:33.740Z,81.27
2023-10-12T19:42:02.568Z,80.56
2023-10-12T19:44:32.440Z,81.27
2023-10-12T19:47:01.629Z,81.79
2023-10-12T19:49:30.116Z,82.41
2023-10-12T19:51:58.831Z,82.71
2023-10-12T19:54:28.927Z,82.63
2023-10-12T19:56:57.390Z,82.84
2023-10-12T19:59:30.227Z,83.84
2023-10-12T20:01:59.394Z,84.69
2023-10-12T20:04:28.858Z,85.27
2023-10-12T20:06:57.277Z,85.39
2023-10-12T20:09:29.823Z,85.87
2023-10-12T20:11:59.684Z,85.68
2023-10-12T20:14:28.954Z,86.48
2023-10-12T20:16:57.322Z,86.73
2023-10-12T20:19:26.618Z,86.77
2023-10-12T20:21:55.394Z,86.82
2023-10-12T20:24:24.107Z,87.11
2023-10-12T20:26:52.594Z,86.89
2023-10-12T20:29:24.565Z,86.91
2023-10-12T20:31:52.998Z,87.18
2023-10-12T20:34:22.109Z,87.50
2023-10-12T20:36:51.460Z,87.63
2023-10-12T20:39:25.163Z,87.56
2023-10-12T20:41:53.896Z,87.37
2023-10-12T20:44:24.347Z,87.69
2023-10-12T20:46:53.153Z,86.95
2023-10-12T20:49:22.580Z,87.06
2023-10-12T20:51:52.396Z,87.48
2023-10-12T20:54:22.969Z,87.43
2023-10-12T20:56:51.253Z,87.27
2023-10-12T20:59:27.305Z,86.80
2023-10-12T21:02:05.799Z,86.74
2023-10-12T21:04:34.676Z,86.75
2023-10-12T21:07:05.612Z,87.11
2023-10-12T21:09:35.359Z,86.50
2023-10-12T21:12:15.616Z,87.04
2023-10-12T21:14:44.744Z,86.23
2023-10-12T21:17:33.425Z,86.14
2023-10-12T21:20:14.621Z,86.73
2023-10-12T21:22:42.992Z,86.46
2023-10-12T21:25:14.651Z,86.85
2023-10-12T21:27:46.734Z,86.15
2023-10-12T21:30:17.628Z,86.60
2023-10-12T21:32:47.485Z,86.67
2023-10-12T21:35:22.825Z,87.68
2023-10-12T21:37:51.279Z,87.47
2023-10-12T21:40:40.291Z,89.55
2023-10-12T21:43:10.787Z,88.10
2023-10-12T21:45:49.270Z,88.37
2023-10-12T21:48:20.735Z,88.34
2023-10-12T21:50:49.335Z,88.24
2023-10-12T21:53:17.719Z,89.10
2023-10-12T21:55:46.367Z,90.50
2023-10-12T21:58:14.792Z,89.51
2023-10-12T22:00:58.417Z,89.42
2023-10-12T22:03:31.117Z,89.74
2023-10-12T22:06:00.773Z,88.94
2023-10-12T22:08:29.052Z,88.26
2023-10-12T22:11:00.368Z,88.10
2023-10-12T22:13:38.847Z,87.43
2023-10-12T22:16:12.116Z,88.63
2023-10-12T22:18:43.240Z,88.69
2023-10-12T22:21:12.326Z,87.81
2023-10-12T22:23:40.619Z,87.70
2023-10-12T22:26:09.930Z,87.72
2023-10-12T22:28:38.191Z,88.29
2023-10-12T22:31:09.212Z,88.07
2023-10-12T22:33:37.722Z,87.94
2023-10-12T22:36:09.342Z,87.77
2023-10-12T22:38:37.582Z,88.45
2023-10-12T22:41:06.338Z,88.63
2023-10-12T22:43:36.536Z,88.59
2023-10-12T22:46:05.728Z,89.41
2023-10-12T22:48:34.073Z,90.02
2023-10-12T22:51:02.779Z,90.84
2023-10-12T22:53:33.564Z,90.34
2023-10-12T22:56:02.163Z,90.03
2023-10-12T22:58:30.446Z,91.06
2023-10-12T23:01:01.624Z,90.42
2023-10-12T23:03:31.814Z,90.12
2023-10-12T23:06:00.535Z,90.53
2023-10-12T23:08:30.186Z,91.35
2023-10-12T23:11:15.575Z,92.63
2023-10-12T23:13:48.754Z,91.80
2023-10-12T23:16:23.766Z,92.05
2023-10-12T23:18:56.199Z,91.69
2023-10-12T23:21:33.636Z,91.47
2023-10-12T23:24:13.076Z,94.16
2023-10-12T23:26:43.750Z,95.33
2023-10-12T23:29:12.033Z,94.15
2023-10-12T23:31:44.096Z,92.80
2023-10-12T23:34:25.928Z,93.28
2023-10-12T23:36:59.549Z,94.25
2023-10-12T23:39:37.197Z,94.78
2023-10-12T23:42:09.023Z,94.40
2023-10-12T23:44:54.682Z,93.59
2023-10-12T23:47:41.146Z,93.77
2023-10-12T23:50:30.284Z,93.90
2023-10-12T23:52:58.938Z,94.72
2023-10-12T23:55:35.698Z,94.89
2023-10-12T23:58:08.377Z,93.32
